Time;durP1;ratioP1;P1;durP2;ratioP2;P2;SDS_P1;SDS_P2;PMS_P1;PMS_P2;Temp;Humidity;BMP_temperature;BMP_pressure;BME280_temperature;BME280_humidity;BME280_pressure;Samples;Min_cycle;Max_cycle;Signal;HPM_P1;HPM_P2
2023/10/13 19:49:45;;;;;;;15.00;6.22;;;;;;;;;;6798282;19;23103;-75
2023/10/13 19:52:11;;;;;;;18.38;7.00;;;;;;;;;;7339815;19;20705;-75
2023/10/13 19:54:38;;;;;;;15.20;6.35;;;;;;;;;;7350292;19;20282;-75
2023/10/13 19:57:04;;;;;;;16.88;6.35;;;;;;;;;;7336666;19;20023;-75
2023/10/13 19:59:30;;;;;;;16.52;7.18;;;;;;;;;;7355440;19;20007;-75
2023/10/13 20:01:55;;;;;;;19.70;7.10;;;;;;;;;;7351116;19;20007;-75
2023/10/13 20:04:21;;;;;;;28.07;7.37;;;;;;;;;;7349820;19;20001;-74
2023/10/13 20:06:46;;;;;;;16.52;7.18;;;;;;;;;;7334839;19;20226;-76
2023/10/13 20:09:32;;;;;;;18.83;7.13;;;;;;;;;;7355032;19;19999;-75
2023/10/13 20:11:57;;;;;;;21.42;7.03;;;;;;;;;;7354314;19;20018;-74
2023/10/13 20:14:22;;;;;;;15.73;6.63;;;;;;;;;;7348323;19;20424;-74
2023/10/13 20:16:50;;;;;;;19.43;7.70;;;;;;;;;;7347573;19;19994;-74
2023/10/13 20:19:16;;;;;;;17.23;7.22;;;;;;;;;;7351157;19;20553;-75
2023/10/13 20:21:42;;;;;;;19.30;7.40;;;;;;;;;;7343738;19;20018;-75
2023/10/13 20:24:07;;;;;;;24.52;8.27;;;;;;;;;;7350407;19;20006;-74
2023/10/13 20:26:38;;;;;;;24.10;8.73;;;;;;;;;;7346605;19;19999;-76
2023/10/13 20:29:04;;;;;;;15.55;8.20;;;;;;;;;;7335047;19;20531;-75
2023/10/13 20:31:35;;;;;;;21.63;8.43;;;;;;;;;;7352068;19;20075;-75
2023/10/13 20:34:00;;;;;;;24.55;9.02;;;;;;;;;;7348442;19;20039;-75
2023/10/13 20:36:26;;;;;;;21.97;8.67;;;;;;;;;;7342011;19;20029;-75
2023/10/13 20:38:51;;;;;;;17.57;8.30;;;;;;;;;;7344998;19;20260;-76
2023/10/13 20:41:17;;;;;;;14.70;8.10;;;;;;;;;;7363737;19;20018;-76
2023/10/13 20:43:47;;;;;;;16.45;8.40;;;;;;;;;;7356732;19;20097;-76
2023/10/13 20:46:12;;;;;;;19.05;8.38;;;;;;;;;;7357717;19;20118;-75
2023/10/13 20:48:37;;;;;;;17.37;8.30;;;;;;;;;;7353126;19;20002;-75
2023/10/13 20:51:04;;;;;;;22.67;9.73;;;;;;;;;;7348137;19;20009;-75
2023/10/13 20:53:30;;;;;;;20.15;8.90;;;;;;;;;;7345213;19;20402;-75
2023/10/13 20:56:02;;;;;;;21.35;9.75;;;;;;;;;;7341014;19;20015;-76
2023/10/13 20:58:28;;;;;;;20.88;9.52;;;;;;;;;;7352510;19;20062;-76
2023/10/13 21:00:54;;;;;;;19.23;9.93;;;;;;;;;;7335672;19;20405;-75
2023/10/13 21:03:20;;;;;;;25.17;10.40;;;;;;;;;;7355549;19;20031;-75
2023/10/13 21:05:45;;;;;;;22.85;9.75;;;;;;;;;;7345673;19;21195;-75
2023/10/13 21:08:10;;;;;;;21.63;10.18;;;;;;;;;;7349629;19;20209;-75
2023/10/13 21:10:36;;;;;;;24.95;10.32;;;;;;;;;;7345279;19;20361;-74
2023/10/13 21:13:02;;;;;;;21.43;10.67;;;;;;;;;;7352911;19;20002;-74
2023/10/13 21:15:27;;;;;;;22.33;10.75;;;;;;;;;;7340465;19;20003;-75
2023/10/13 21:17:53;;;;;;;20.45;10.07;;;;;;;;;;7355631;19;20391;-75
2023/10/13 21:20:19;;;;;;;24.23;10.90;;;;;;;;;;7358664;19;20146;-74
2023/10/13 21:22:45;;;;;;;20.02;10.82;;;;;;;;;;7324765;19;20026;-73
2023/10/13 21:25:19;;;;;;;27.48;11.18;;;;;;;;;;7345983;19;19999;-73
2023/10/13 21:27:44;;;;;;;;;;;;;;;;;;7353603;19;20015;-74
2023/10/13 21:30:10;;;;;;;25.60;12.05;;;;;;;;;;7352274;19;20030;-74
2023/10/13 21:32:35;;;;;;;22.58;11.07;;;;;;;;;;7336726;19;20006;-73
2023/10/13 21:35:01;;;;;;;20.87;11.33;;;;;;;;;;7348683;19;20115;-74
2023/10/13 21:37:26;;;;;;;26.40;11.77;;;;;;;;;;7348281;19;20232;-73
2023/10/13 21:39:51;;;;;;;23.67;11.40;;;;;;;;;;7353105;19;20025;-73
2023/10/13 21:42:17;;;;;;;21.40;11.02;;;;;;;;;;7353275;19;20006;-72
2023/10/13 21:44:43;;;;;;;32.92;12.48;;;;;;;;;;7353217;19;20003;-73
2023/10/13 21:47:08;;;;;;;28.95;11.85;;;;;;;;;;7350899;19;20664;-73
2023/10/13 21:49:33;;;;;;;24.67;12.30;;;;;;;;;;7347595;19;20086;-75
2023/10/13 21:51:59;;;;;;;22.75;13.00;;;;;;;;;;7350855;19;20227;-74
2023/10/13 21:54:24;;;;;;;21.63;12.23;;;;;;;;;;7354611;19;20109;-73
2023/10/13 21:56:49;;;;;;;31.90;13.37;;;;;;;;;;7357187;19;20138;-72
2023/10/13 21:59:14;;;;;;;30.77;13.70;;;;;;;;;;7353153;19;20783;-73
2023/10/13 22:01:44;;;;;;;28.60;12.83;;;;;;;;;;7294283;19;20777;-90
2023/10/13 22:04:09;;;;;;;27.70;13.75;;;;;;;;;;7335767;19;20027;-81
2023/10/13 22:06:35;;;;;;;27.30;14.03;;;;;;;;;;7337100;19;20111;-80
2023/10/13 22:09:04;;;;;;;26.02;14.55;;;;;;;;;;7332581;19;20243;-82
2023/10/13 22:11:30;;;;;;;24.67;13.35;;;;;;;;;;7356587;19;20003;-79
2023/10/13 22:13:55;;;;;;;23.20;13.15;;;;;;;;;;7345834;19;20091;-81
2023/10/13 22:16:20;;;;;;;27.08;13.75;;;;;;;;;;7347210;19;20080;-87
2023/10/13 22:18:48;;;;;;;21.73;12.70;;;;;;;;;;7345748;19;20002;-83
2023/10/13 22:21:14;;;;;;;24.52;13.13;;;;;;;;;;7362574;19;20247;-78
2023/10/13 22:23:40;;;;;;;29.27;13.25;;;;;;;;;;7358933;19;20006;-87
2023/10/13 22:26:11;;;;;;;27.25;12.90;;;;;;;;;;7366523;19;20003;-81
2023/10/13 22:28:42;;;;;;;24.05;12.02;;;;;;;;;;7364656;19;20002;-81
2023/10/13 22:31:10;;;;;;;23.55;11.98;;;;;;;;;;7363668;19;20135;-78
2023/10/13 22:33:36;;;;;;;25.67;12.80;;;;;;;;;;7357350;19;20038;-79
2023/10/13 22:36:02;;;;;;;32.33;12.95;;;;;;;;;;7358842;19;20018;-81
2023/10/13 22:38:29;;;;;;;28.77;12.80;;;;;;;;;;7366403;19;20431;-79
2023/10/13 22:40:54;;;;;;;30.38;12.57;;;;;;;;;;7367696;19;20023;-84
2023/10/13 22:43:19;;;;;;;25.87;12.43;;;;;;;;;;7369338;19;20018;-79
2023/10/13 22:45:45;;;;;;;29.53;11.87;;;;;;;;;;7364089;19;20761;-78
2023/10/13 22:48:10;;;;;;;27.42;12.20;;;;;;;;;;7368053;19;20009;-84
2023/10/13 22:50:35;;;;;;;26.20;11.23;;;;;;;;;;7369013;19;20014;-89
2023/10/13 22:53:00;;;;;;;26.73;12.53;;;;;;;;;;7364829;19;19998;-81
2023/10/13 22:55:26;;;;;;;25.63;11.15;;;;;;;;;;7368064;19;20452;-83
2023/10/13 22:57:51;;;;;;;30.70;10.73;;;;;;;;;;7367002;19;20350;-81
2023/10/13 23:00:18;;;;;;;27.42;11.57;;;;;;;;;;7367400;19;20014;-81
2023/10/13 23:02:48;;;;;;;25.67;10.73;;;;;;;;;;7362278;19;20007;-81
2023/10/13 23:05:27;;;;;;;32.75;11.80;;;;;;;;;;7363881;19;19994;-79
2023/10/13 23:08:00;;;;;;;29.77;11.35;;;;;;;;;;7357081;19;20174;-81
2023/10/13 23:13:20;;;;;;;22.63;10.88;;;;;;;;;;7365966;19;20005;-81
2023/10/13 23:15:49;;;;;;;25.63;10.05;;;;;;;;;;7363663;19;20319;-77
2023/10/13 23:18:18;;;;;;;23.17;9.63;;;;;;;;;;7367212;19;20006;-86
2023/10/13 23:20:43;;;;;;;26.48;9.30;;;;;;;;;;7363359;19;20018;-81
2023/10/13 23:23:09;;;;;;;22.98;8.98;;;;;;;;;;7361290;19;20005;-80
2023/10/13 23:25:38;;;;;;;20.83;8.98;;;;;;;;;;7368406;19;20844;-79
2023/10/13 23:28:05;;;;;;;23.23;9.13;;;;;;;;;;7370256;19;19999;-78
2023/10/13 23:30:30;;;;;;;22.25;8.55;;;;;;;;;;7366824;19;20007;-83
2023/10/13 23:32:56;;;;;;;25.45;9.48;;;;;;;;;;7362283;19;20393;-81
2023/10/13 23:35:21;;;;;;;23.23;8.70;;;;;;;;;;7359255;19;20005;-80
2023/10/13 23:37:47;;;;;;;24.10;8.60;;;;;;;;;;7358592;19;20024;-83
2023/10/13 23:40:14;;;;;;;19.80;8.20;;;;;;;;;;7363587;19;20265;-84
2023/10/13 23:42:54;;;;;;;24.95;9.10;;;;;;;;;;7364903;19;20009;-80
2023/10/13 23:45:23;;;;;;;20.27;8.23;;;;;;;;;;7366482;19;20361;-86
2023/10/13 23:47:48;;;;;;;21.30;7.97;;;;;;;;;;7359408;19;20003;-82
2023/10/13 23:50:16;;;;;;;19.77;8.67;;;;;;;;;;7364282;19;19998;-84
2023/10/13 23:52:45;;;;;;;17.05;7.38;;;;;;;;;;7358888;19;20002;-78
2023/10/13 23:55:17;;;;;;;18.65;7.30;;;;;;;;;;7366296;19;20074;-85
2023/10/13 23:57:49;;;;;;;19.55;7.45;;;;;;;;;;7365034;19;20003;-79
